sensor_id;sensor_type;location;lat;lon;timestamp;pressure;altitude;pressure_sealevel;temperature;humidity
59367;BME280;45163;47.690;11.770;2022-07-10T00:00:38;93827.03;;;15.73;100.00
59367;BME280;45163;47.690;11.770;2022-07-10T00:03:04;93819.19;;;15.71;100.00
59367;BME280;45163;47.690;11.770;2022-07-10T00:05:31;93819.19;;;15.71;100.00
59367;BME280;45163;47.690;11.770;2022-07-10T00:07:57;93813.88;;;15.77;100.00
59367;BME280;45163;47.690;11.770;2022-07-10T00:10:24;93811.72;;;15.72;100.00
59367;BME280;45163;47.690;11.770;2022-07-10T00:12:51;93811.72;;;15.72;100.00
59367;BME280;45163;47.690;11.770;2022-07-10T00:15:18;93805.78;;;15.73;100.00
59367;BME280;45163;47.690;11.770;2022-07-10T00:17:44;93799.03;;;15.74;100.00
59367;BME280;45163;47.690;11.770;2022-07-10T00:20:12;93804.25;;;15.72;100.00
59367;BME280;45163;47.690;11.770;2022-07-10T00:22:39;93799.19;;;15.71;100.00
59367;BME280;45163;47.690;11.770;2022-07-10T00:25:07;93796.56;;;15.67;100.00
59367;BME280;45163;47.690;11.770;2022-07-10T00:27:33;93796.53;;;15.58;100.00
59367;BME280;45163;47.690;11.770;2022-07-10T00:30:00;93795.91;;;15.54;100.00
59367;BME280;45163;47.690;11.770;2022-07-10T00:32:27;93795.28;;;15.59;100.00
59367;BME280;45163;47.690;11.770;2022-07-10T00:34:53;93791.63;;;15.62;100.00
59367;BME280;45163;47.690;11.770;2022-07-10T00:37:19;93785.97;;;15.56;100.00
59367;BME280;45163;47.690;11.770;2022-07-10T00:39:47;93778.94;;;15.55;100.00
59367;BME280;45163;47.690;11.770;2022-07-10T00:42:14;93781.25;;;15.57;100.00
59367;BME280;45163;47.690;11.770;2022-07-10T00:44:42;93791.34;;;15.60;100.00
59367;BME280;45163;47.690;11.770;2022-07-10T00:47:09;93796.84;;;15.60;100.00
59367;BME280;45163;47.690;11.770;2022-07-10T00:49:37;93789.50;;;15.57;100.00
59367;BME280;45163;47.690;11.770;2022-07-10T00:52:06;93789.78;;;15.59;100.00
59367;BME280;45163;47.690;11.770;2022-07-10T00:54:34;93791.78;;;15.58;100.00
59367;BME280;45163;47.690;11.770;2022-07-10T00:57:01;93781.75;;;15.64;100.00
59367;BME280;45163;47.690;11.770;2022-07-10T00:59:29;93777.31;;;15.67;100.00
59367;BME280;45163;47.690;11.770;2022-07-10T01:01:55;93777.31;;;15.67;100.00
59367;BME280;45163;47.690;11.770;2022-07-10T01:04:21;93780.63;;;15.62;100.00
59367;BME280;45163;47.690;11.770;2022-07-10T01:06:47;93784.88;;;15.54;100.00
59367;BME280;45163;47.690;11.770;2022-07-10T01:09:13;93777.72;;;15.47;100.00
59367;BME280;45163;47.690;11.770;2022-07-10T01:11:39;93783.16;;;15.38;100.00
59367;BME280;45163;47.690;11.770;2022-07-10T01:14:06;93786.38;;;15.36;100.00
59367;BME280;45163;47.690;11.770;2022-07-10T01:16:32;93803.84;;;15.42;100.00
59367;BME280;45163;47.690;11.770;2022-07-10T01:18:58;93816.97;;;15.38;100.00
59367;BME280;45163;47.690;11.770;2022-07-10T01:21:28;93819.72;;;15.07;100.00
59367;BME280;45163;47.690;11.770;2022-07-10T01:23:55;93836.84;;;15.11;100.00
59367;BME280;45163;47.690;11.770;2022-07-10T01:26:22;93841.75;;;14.85;100.00
59367;BME280;45163;47.690;11.770;2022-07-10T01:28:50;93849.28;;;14.72;100.00
59367;BME280;45163;47.690;11.770;2022-07-10T01:31:18;93849.28;;;14.72;100.00
59367;BME280;45163;47.690;11.770;2022-07-10T01:33:46;93849.53;;;14.65;100.00
59367;BME280;45163;47.690;11.770;2022-07-10T01:36:12;93850.88;;;14.60;100.00
59367;BME280;45163;47.690;11.770;2022-07-10T01:38:40;93864.38;;;14.67;100.00
59367;BME280;45163;47.690;11.770;2022-07-10T01:41:06;93860.91;;;14.76;100.00
59367;BME280;45163;47.690;11.770;2022-07-10T01:43:37;93861.81;;;14.73;100.00
59367;BME280;45163;47.690;11.770;2022-07-10T01:46:03;93874.66;;;14.76;100.00
59367;BME280;45163;47.690;11.770;2022-07-10T01:48:30;93879.69;;;14.78;100.00
59367;BME280;45163;47.690;11.770;2022-07-10T01:50:57;93867.94;;;14.55;100.00
59367;BME280;45163;47.690;11.770;2022-07-10T01:53:23;93874.38;;;14.61;100.00
59367;BME280;45163;47.690;11.770;2022-07-10T01:55:49;93865.75;;;14.50;100.00
59367;BME280;45163;47.690;11.770;2022-07-10T01:58:16;93866.22;;;14.49;100.00
59367;BME280;45163;47.690;11.770;2022-07-10T02:00:42;93855.13;;;14.39;100.00
59367;BME280;45163;47.690;11.770;2022-07-10T02:03:10;93855.91;;;14.62;100.00
59367;BME280;45163;47.690;11.770;2022-07-10T02:05:55;93852.75;;;14.63;100.00
59367;BME280;45163;47.690;11.770;2022-07-10T02:08:21;93844.56;;;14.51;100.00
59367;BME280;45163;47.690;11.770;2022-07-10T02:10:47;93849.47;;;14.56;100.00
59367;BME280;45163;47.690;11.770;2022-07-10T02:13:13;93840.06;;;14.44;100.00
59367;BME280;45163;47.690;11.770;2022-07-10T02:15:40;93834.91;;;14.33;100.00
59367;BME280;45163;47.690;11.770;2022-07-10T02:18:07;93843.09;;;14.24;100.00
59367;BME280;45163;47.690;11.770;2022-07-10T02:20:34;93841.44;;;14.27;100.00
59367;BME280;45163;47.690;11.770;2022-07-10T02:23:01;93848.00;;;14.29;100.00
59367;BME280;45163;47.690;11.770;2022-07-10T02:25:27;93852.38;;;14.39;100.00
59367;BME280;45163;47.690;11.770;2022-07-10T02:27:53;93858.28;;;14.38;100.00
59367;BME280;45163;47.690;11.770;2022-07-10T02:30:20;93857.41;;;14.41;100.00
59367;BME280;45163;47.690;11.770;2022-07-10T02:32:46;93847.69;;;14.27;100.00
59367;BME280;45163;47.690;11.770;2022-07-10T02:35:13;93846.94;;;14.27;100.00
59367;BME280;45163;47.690;11.770;2022-07-10T02:37:39;93846.59;;;14.25;100.00
59367;BME280;45163;47.690;11.770;2022-07-10T02:40:05;93841.56;;;14.23;100.00
59367;BME280;45163;47.690;11.770;2022-07-10T02:42:32;93842.91;;;14.18;100.00
59367;BME280;45163;47.690;11.770;2022-07-10T02:44:58;93830.44;;;14.05;100.00
59367;BME280;45163;47.690;11.770;2022-07-10T02:47:24;93831.50;;;14.07;100.00
59367;BME280;45163;47.690;11.770;2022-07-10T02:49:50;93844.00;;;14.08;100.00
59367;BME280;45163;47.690;11.770;2022-07-10T02:52:16;93834.38;;;14.04;100.00
59367;BME280;45163;47.690;11.770;2022-07-10T02:54:42;93845.34;;;14.04;100.00
59367;BME280;45163;47.690;11.770;2022-07-10T02:57:08;93835.59;;;14.03;100.00
59367;BME280;45163;47.690;11.770;2022-07-10T02:59:34;93838.09;;;14.10;100.00
59367;BME280;45163;47.690;11.770;2022-07-10T03:02:00;93842.47;;;14.07;100.00
59367;BME280;45163;47.690;11.770;2022-07-10T03:04:27;93845.47;;;14.00;100.00
59367;BME280;45163;47.690;11.770;2022-07-10T03:06:53;93842.22;;;13.92;100.00
59367;BME280;45163;47.690;11.770;2022-07-10T03:09:19;93844.84;;;13.83;100.00
59367;BME280;45163;47.690;11.770;2022-07-10T03:11:45;93842.00;;;13.74;100.00
59367;BME280;45163;47.690;11.770;2022-07-10T03:14:11;93848.91;;;13.79;100.00
59367;BME280;45163;47.690;11.770;2022-07-10T03:16:37;93844.31;;;13.76;100.00
59367;BME280;45163;47.690;11.770;2022-07-10T03:19:04;93836.22;;;13.72;100.00
59367;BME280;45163;47.690;11.770;2022-07-10T03:21:30;93843.78;;;13.68;100.00
59367;BME280;45163;47.690;11.770;2022-07-10T03:23:56;93850.69;;;13.73;100.00
59367;BME280;45163;47.690;11.770;2022-07-10T03:26:22;93840.38;;;13.64;100.00
59367;BME280;45163;47.690;11.770;2022-07-10T03:28:48;93849.03;;;13.62;100.00
59367;BME280;45163;47.690;11.770;2022-07-10T03:31:14;93838.03;;;13.75;100.00
59367;BME280;45163;47.690;11.770;2022-07-10T03:33:40;93847.06;;;13.76;100.00
59367;BME280;45163;47.690;11.770;2022-07-10T03:36:06;93844.66;;;13.65;100.00
59367;BME280;45163;47.690;11.770;2022-07-10T03:38:32;93852.78;;;13.68;100.00
59367;BME280;45163;47.690;11.770;2022-07-10T03:40:58;93857.50;;;13.68;100.00
59367;BME280;45163;47.690;11.770;2022-07-10T03:43:24;93857.16;;;13.53;100.00
59367;BME280;45163;47.690;11.770;2022-07-10T03:45:51;93858.69;;;13.54;100.00
59367;BME280;45163;47.690;11.770;2022-07-10T03:48:17;93848.50;;;13.67;100.00
59367;BME280;45163;47.690;11.770;2022-07-10T03:50:43;93847.72;;;13.54;100.00
59367;BME280;45163;47.690;11.770;2022-07-10T03:53:09;93851.34;;;13.77;100.00
59367;BME280;45163;47.690;11.770;2022-07-10T03:55:35;93846.16;;;13.79;100.00
59367;BME280;45163;47.690;11.770;2022-07-10T03:58:01;93846.94;;;13.79;100.00
59367;BME280;45163;47.690;11.770;2022-07-10T04:00:30;93841.22;;;13.86;100.00
59367;BME280;45163;47.690;11.770;2022-07-10T04:03:02;93843.31;;;13.82;100.00
59367;BME280;45163;47.690;11.770;2022-07-10T04:05:29;93841.66;;;13.85;100.00
59367;BME280;45163;47.690;11.770;2022-07-10T04:07:56;93838.16;;;13.84;100.00
59367;BME280;45163;47.690;11.770;2022-07-10T04:10:23;93841.88;;;13.90;100.00
59367;BME280;45163;47.690;11.770;2022-07-10T04:12:50;93839.31;;;13.96;100.00
59367;BME280;45163;47.690;11.770;2022-07-10T04:15:16;93837.59;;;13.89;100.00
59367;BME280;45163;47.690;11.770;2022-07-10T04:17:42;93847.44;;;14.00;100.00
59367;BME280;45163;47.690;11.770;2022-07-10T04:20:08;93837.72;;;13.86;100.00
59367;BME280;45163;47.690;11.770;2022-07-10T04:22:35;93841.78;;;13.81;100.00
59367;BME280;45163;47.690;11.770;2022-07-10T04:25:02;93839.78;;;13.94;100.00
59367;BME280;45163;47.690;11.770;2022-07-10T04:27:28;93833.75;;;13.87;100.00
59367;BME280;45163;47.690;11.770;2022-07-10T04:29:54;93831.66;;;13.91;100.00
59367;BME280;45163;47.690;11.770;2022-07-10T04:32:20;93839.13;;;13.90;100.00
59367;BME280;45163;47.690;11.770;2022-07-10T04:34:46;93839.25;;;13.87;100.00
59367;BME280;45163;47.690;11.770;2022-07-10T04:37:12;93835.50;;;13.93;100.00
59367;BME280;45163;47.690;11.770;2022-07-10T04:39:39;93837.13;;;13.91;100.00
59367;BME280;45163;47.690;11.770;2022-07-10T04:42:06;93833.56;;;13.81;100.00
59367;BME280;45163;47.690;11.770;2022-07-10T04:44:32;93826.69;;;13.99;100.00
59367;BME280;45163;47.690;11.770;2022-07-10T04:46:58;93832.09;;;13.89;100.00
59367;BME280;45163;47.690;11.770;2022-07-10T04:49:25;93829.25;;;13.93;100.00
59367;BME280;45163;47.690;11.770;2022-07-10T04:51:52;93825.75;;;13.92;100.00
59367;BME280;45163;47.690;11.770;2022-07-10T04:54:18;93829.31;;;14.02;100.00
59367;BME280;45163;47.690;11.770;2022-07-10T04:56:44;93833.72;;;14.00;100.00
59367;BME280;45163;47.690;11.770;2022-07-10T04:59:10;93826.88;;;14.04;100.00
59367;BME280;45163;47.690;11.770;2022-07-10T05:01:36;93828.63;;;14.11;100.00
59367;BME280;45163;47.690;11.770;2022-07-10T05:04:03;93827.22;;;14.06;100.00
59367;BME280;45163;47.690;11.770;2022-07-10T05:06:29;93827.81;;;14.01;100.00
59367;BME280;45163;47.690;11.770;2022-07-10T05:08:56;93830.44;;;14.05;100.00
59367;BME280;45163;47.690;11.770;2022-07-10T05:11:22;93826.53;;;14.15;100.00
59367;BME280;45163;47.690;11.770;2022-07-10T05:13:48;93832.09;;;14.24;100.00
59367;BME280;45163;47.690;11.770;2022-07-10T05:16:15;93833.91;;;14.18;100.00
59367;BME280;45163;47.690;11.770;2022-07-10T05:18:42;93836.81;;;14.24;100.00
59367;BME280;45163;47.690;11.770;2022-07-10T05:21:08;93832.75;;;14.28;100.00
59367;BME280;45163;47.690;11.770;2022-07-10T05:23:35;93832.63;;;14.32;100.00
59367;BME280;45163;47.690;11.770;2022-07-10T05:26:01;93834.16;;;14.33;100.00
59367;BME280;45163;47.690;11.770;2022-07-10T05:28:27;93834.16;;;14.33;100.00
59367;BME280;45163;47.690;11.770;2022-07-10T05:30:53;93832.97;;;14.34;100.00
59367;BME280;45163;47.690;11.770;2022-07-10T05:33:19;93833.28;;;14.36;100.00
59367;BME280;45163;47.690;11.770;2022-07-10T05:35:45;93834.78;;;14.37;100.00
59367;BME280;45163;47.690;11.770;2022-07-10T05:38:11;93838.69;;;14.27;100.00
59367;BME280;45163;47.690;11.770;2022-07-10T05:40:37;93832.06;;;14.37;100.00
59367;BME280;45163;47.690;11.770;2022-07-10T05:43:03;93830.91;;;14.47;100.00
59367;BME280;45163;47.690;11.770;2022-07-10T05:45:29;93831.66;;;14.60;100.00
59367;BME280;45163;47.690;11.770;2022-07-10T05:47:55;93830.88;;;14.60;100.00
59367;BME280;45163;47.690;11.770;2022-07-10T05:50:22;93837.31;;;14.66;100.00
59367;BME280;45163;47.690;11.770;2022-07-10T05:52:48;93834.84;;;14.59;100.00
59367;BME280;45163;47.690;11.770;2022-07-10T05:55:14;93826.63;;;14.46;100.00
59367;BME280;45163;47.690;11.770;2022-07-10T05:57:41;93826.41;;;14.53;100.00
59367;BME280;45163;47.690;11.770;2022-07-10T06:00:09;93826.94;;;14.61;100.00
59367;BME280;45163;47.690;11.770;2022-07-10T06:02:35;93825.41;;;14.60;100.00
59367;BME280;45163;47.690;11.770;2022-07-10T06:05:01;93834.28;;;14.64;100.00
59367;BME280;45163;47.690;11.770;2022-07-10T06:07:27;93826.28;;;14.57;100.00
59367;BME280;45163;47.690;11.770;2022-07-10T06:09:54;93827.50;;;14.56;100.00
59367;BME280;45163;47.690;11.770;2022-07-10T06:12:20;93827.66;;;14.39;100.00
59367;BME280;45163;47.690;11.770;2022-07-10T06:14:46;93832.06;;;14.37;100.00
59367;BME280;45163;47.690;11.770;2022-07-10T06:17:12;93828.31;;;14.43;100.00
59367;BME280;45163;47.690;11.770;2022-07-10T06:19:38;93826.63;;;14.46;100.00
59367;BME280;45163;47.690;11.770;2022-07-10T06:22:04;93829.06;;;14.44;100.00
59367;BME280;45163;47.690;11.770;2022-07-10T06:24:48;93826.63;;;14.46;100.00
59367;BME280;45163;47.690;11.770;2022-07-10T06:27:15;93825.91;;;14.33;100.00
59367;BME280;45163;47.690;11.770;2022-07-10T06:29:41;93814.28;;;14.29;100.00
59367;BME280;45163;47.690;11.770;2022-07-10T06:32:07;93820.25;;;14.27;100.00
59367;BME280;45163;47.690;11.770;2022-07-10T06:34:33;93815.63;;;14.24;100.00
59367;BME280;45163;47.690;11.770;2022-07-10T06:36:59;93822.78;;;14.22;100.00
59367;BME280;45163;47.690;11.770;2022-07-10T06:39:26;93810.91;;;14.25;100.00
59367;BME280;45163;47.690;11.770;2022-07-10T06:41:52;93819.84;;;14.38;100.00
59367;BME280;45163;47.690;11.770;2022-07-10T06:44:18;93820.94;;;14.40;100.00
59367;BME280;45163;47.690;11.770;2022-07-10T06:46:44;93819.94;;;14.47;100.00
59367;BME280;45163;47.690;11.770;2022-07-10T06:49:30;93819.91;;;14.60;100.00
59367;BME280;45163;47.690;11.770;2022-07-10T06:51:56;93828.50;;;14.71;100.00
59367;BME280;45163;47.690;11.770;2022-07-10T06:54:21;93820.53;;;14.64;100.00
59367;BME280;45163;47.690;11.770;2022-07-10T06:56:47;93826.59;;;14.59;100.00
59367;BME280;45163;47.690;11.770;2022-07-10T06:59:13;93818.81;;;14.57;100.00
59367;BME280;45163;47.690;11.770;2022-07-10T07:01:39;93817.53;;;14.49;100.00
59367;BME280;45163;47.690;11.770;2022-07-10T07:04:05;93817.28;;;14.56;100.00
59367;BME280;45163;47.690;11.770;2022-07-10T07:06:31;93811.72;;;14.69;100.00
59367;BME280;45163;47.690;11.770;2022-07-10T07:08:57;93810.38;;;14.74;100.00
59367;BME280;45163;47.690;11.770;2022-07-10T07:11:23;93813.44;;;14.76;100.00
59367;BME280;45163;47.690;11.770;2022-07-10T07:13:49;93812.97;;;14.77;100.00
59367;BME280;45163;47.690;11.770;2022-07-10T07:16:15;93820.34;;;14.80;100.00
59367;BME280;45163;47.690;11.770;2022-07-10T07:18:44;93817.09;;;14.73;100.00
59367;BME280;45163;47.690;11.770;2022-07-10T07:21:17;93823.59;;;14.66;100.00
59367;BME280;45163;47.690;11.770;2022-07-10T07:24:02;93823.28;;;14.64;100.00
59367;BME280;45163;47.690;11.770;2022-07-10T07:26:29;93827.56;;;14.65;100.00
59367;BME280;45163;47.690;11.770;2022-07-10T07:28:55;93826.34;;;14.66;100.00
59367;BME280;45163;47.690;11.770;2022-07-10T07:31:21;93824.56;;;14.72;100.00
59367;BME280;45163;47.690;11.770;2022-07-10T07:33:47;93824.72;;;15.00;100.00
59367;BME280;45163;47.690;11.770;2022-07-10T07:36:14;93821.41;;;15.54;100.00
59367;BME280;45163;47.690;11.770;2022-07-10T07:38:40;93817.56;;;15.83;100.00
59367;BME280;45163;47.690;11.770;2022-07-10T07:41:06;93811.16;;;15.86;100.00
59367;BME280;45163;47.690;11.770;2022-07-10T07:43:32;93809.41;;;15.70;100.00
59367;BME280;45163;47.690;11.770;2022-07-10T07:45:58;93810.81;;;15.34;100.00
59367;BME280;45163;47.690;11.770;2022-07-10T07:48:24;93810.09;;;15.12;100.00
59367;BME280;45163;47.690;11.770;2022-07-10T07:50:50;93811.25;;;14.92;100.00
59367;BME280;45163;47.690;11.770;2022-07-10T07:53:16;93811.13;;;14.74;100.00
59367;BME280;45163;47.690;11.770;2022-07-10T07:55:42;93817.22;;;14.69;100.00
59367;BME280;45163;47.690;11.770;2022-07-10T07:58:08;93819.06;;;14.72;100.00
59367;BME280;45163;47.690;11.770;2022-07-10T08:00:34;93830.63;;;14.67;100.00
59367;BME280;45163;47.690;11.770;2022-07-10T08:03:01;93826.84;;;14.74;100.00
59367;BME280;45163;47.690;11.770;2022-07-10T08:05:27;93827.75;;;14.70;100.00
59367;BME280;45163;47.690;11.770;2022-07-10T08:07:55;93828.06;;;14.73;100.00
59367;BME280;45163;47.690;11.770;2022-07-10T08:10:23;93834.72;;;14.62;100.00
59367;BME280;45163;47.690;11.770;2022-07-10T08:12:51;93831.13;;;14.53;100.00
59367;BME280;45163;47.690;11.770;2022-07-10T08:15:18;93836.31;;;14.51;100.00
59367;BME280;45163;47.690;11.770;2022-07-10T08:17:52;93840.34;;;14.46;100.00
59367;BME280;45163;47.690;11.770;2022-07-10T08:20:19;93843.31;;;14.30;100.00
59367;BME280;45163;47.690;11.770;2022-07-10T08:22:46;93839.22;;;14.34;100.00
59367;BME280;45163;47.690;11.770;2022-07-10T08:25:14;93845.53;;;14.22;100.00
59367;BME280;45163;47.690;11.770;2022-07-10T08:27:40;93845.75;;;14.15;100.00
59367;BME280;45163;47.690;11.770;2022-07-10T08:30:08;93850.41;;;14.05;100.00
59367;BME280;45163;47.690;11.770;2022-07-10T08:32:39;93859.59;;;14.11;100.00
59367;BME280;45163;47.690;11.770;2022-07-10T08:35:06;93862.69;;;14.13;100.00
59367;BME280;45163;47.690;11.770;2022-07-10T08:37:43;93859.19;;;14.13;100.00
59367;BME280;45163;47.690;11.770;2022-07-10T08:40:11;93864.66;;;14.13;100.00
59367;BME280;45163;47.690;11.770;2022-07-10T08:42:39;93857.34;;;13.97;100.00
59367;BME280;45163;47.690;11.770;2022-07-10T08:45:06;93856.25;;;13.94;100.00
59367;BME280;45163;47.690;11.770;2022-07-10T08:47:36;93856.13;;;13.98;100.00
59367;BME280;45163;47.690;11.770;2022-07-10T08:50:04;93867.31;;;14.04;100.00
59367;BME280;45163;47.690;11.770;2022-07-10T08:52:59;93874.66;;;14.07;100.00
59367;BME280;45163;47.690;11.770;2022-07-10T08:55:26;93869.16;;;14.07;100.00
59367;BME280;45163;47.690;11.770;2022-07-10T08:57:54;93869.94;;;14.07;100.00
59367;BME280;45163;47.690;11.770;2022-07-10T09:00:22;93873.53;;;14.17;100.00
59367;BME280;45163;47.690;11.770;2022-07-10T09:02:58;93869.75;;;14.36;100.00
59367;BME280;45163;47.690;11.770;2022-07-10T09:05:25;93854.78;;;14.37;100.00
59367;BME280;45163;47.690;11.770;2022-07-10T09:07:52;93859.72;;;14.42;100.00
59367;BME280;45163;47.690;11.770;2022-07-10T09:10:21;93862.25;;;14.37;100.00
59367;BME280;45163;47.690;11.770;2022-07-10T09:12:59;93861.88;;;14.26;100.00
59367;BME280;45163;47.690;11.770;2022-07-10T09:15:28;93860.91;;;14.19;100.00
59367;BME280;45163;47.690;11.770;2022-07-10T09:18:05;93857.19;;;14.13;100.00
59367;BME280;45163;47.690;11.770;2022-07-10T09:20:35;93860.75;;;14.01;100.00
59367;BME280;45163;47.690;11.770;2022-07-10T09:23:15;93865.81;;;13.90;100.00
59367;BME280;45163;47.690;11.770;2022-07-10T09:25:46;93863.56;;;14.10;100.00
59367;BME280;45163;47.690;11.770;2022-07-10T09:28:16;93865.78;;;14.37;100.00
59367;BME280;45163;47.690;11.770;2022-07-10T09:30:43;93864.38;;;14.67;100.00
59367;BME280;45163;47.690;11.770;2022-07-10T09:33:29;93864.63;;;15.35;100.00
59367;BME280;45163;47.690;11.770;2022-07-10T09:41:30;93833.94;;;15.96;100.00
59367;BME280;45163;47.690;11.770;2022-07-10T09:46:30;93842.25;;;16.41;100.00
59367;BME280;45163;47.690;11.770;2022-07-10T09:51:39;93817.59;;;16.84;100.00
59367;BME280;45163;47.690;11.770;2022-07-10T09:54:08;93824.19;;;16.86;100.00
59367;BME280;45163;47.690;11.770;2022-07-10T09:56:40;93820.81;;;16.46;100.00
59367;BME280;45163;47.690;11.770;2022-07-10T09:59:14;93825.09;;;16.28;100.00
59367;BME280;45163;47.690;11.770;2022-07-10T10:04:11;93821.56;;;16.00;100.00
59367;BME280;45163;47.690;11.770;2022-07-10T10:06:39;93817.75;;;16.16;100.00
59367;BME280;45163;47.690;11.770;2022-07-10T10:09:07;93811.47;;;16.80;100.00
59367;BME280;45163;47.690;11.770;2022-07-10T10:11:35;93814.69;;;16.87;100.00
59367;BME280;45163;47.690;11.770;2022-07-10T10:14:03;93817.31;;;16.82;100.00
59367;BME280;45163;47.690;11.770;2022-07-10T10:16:33;93815.88;;;16.96;100.00
59367;BME280;45163;47.690;11.770;2022-07-10T10:19:00;93821.66;;;17.16;100.00
59367;BME280;45163;47.690;11.770;2022-07-10T10:21:46;93811.94;;;19.12;100.00
59367;BME280;45163;47.690;11.770;2022-07-10T10:24:12;93803.41;;;21.29;100.00
59367;BME280;45163;47.690;11.770;2022-07-10T10:26:41;93793.97;;;22.27;99.64
59367;BME280;45163;47.690;11.770;2022-07-10T10:29:08;93795.31;;;23.76;87.54
59367;BME280;45163;47.690;11.770;2022-07-10T10:31:35;93805.69;;;23.42;81.34
59367;BME280;45163;47.690;11.770;2022-07-10T10:34:01;93802.69;;;21.34;91.79
59367;BME280;45163;47.690;11.770;2022-07-10T10:39:08;93804.19;;;19.46;100.00
59367;BME280;45163;47.690;11.770;2022-07-10T10:41:39;93799.59;;;19.58;100.00
59367;BME280;45163;47.690;11.770;2022-07-10T10:46:56;93799.34;;;19.76;100.00
59367;BME280;45163;47.690;11.770;2022-07-10T10:49:25;93792.59;;;19.77;100.00
59367;BME280;45163;47.690;11.770;2022-07-10T10:52:04;93796.81;;;19.43;100.00
59367;BME280;45163;47.690;11.770;2022-07-10T10:57:20;93778.66;;;18.77;100.00
59367;BME280;45163;47.690;11.770;2022-07-10T10:59:48;93778.97;;;18.40;100.00
59367;BME280;45163;47.690;11.770;2022-07-10T11:02:21;93784.09;;;18.33;100.00
59367;BME280;45163;47.690;11.770;2022-07-10T11:04:50;93782.88;;;17.86;100.00
59367;BME280;45163;47.690;11.770;2022-07-10T11:07:56;93793.09;;;17.95;100.00
59367;BME280;45163;47.690;11.770;2022-07-10T11:12:59;93779.78;;;17.60;100.00
59367;BME280;45163;47.690;11.770;2022-07-10T11:15:27;93780.63;;;17.42;100.00
59367;BME280;45163;47.690;11.770;2022-07-10T11:17:59;93781.75;;;17.26;100.00
59367;BME280;45163;47.690;11.770;2022-07-10T11:20:32;93787.91;;;17.21;100.00
59367;BME280;45163;47.690;11.770;2022-07-10T11:23:34;93782.16;;;17.43;100.00
59367;BME280;45163;47.690;11.770;2022-07-10T11:26:05;93788.63;;;17.40;100.00
59367;BME280;45163;47.690;11.770;2022-07-10T11:29:17;93781.53;;;19.77;100.00
59367;BME280;45163;47.690;11.770;2022-07-10T11:31:54;93762.84;;;22.23;96.11
59367;BME280;45163;47.690;11.770;2022-07-10T11:34:34;93762.34;;;23.13;80.02
59367;BME280;45163;47.690;11.770;2022-07-10T11:37:00;93751.53;;;22.38;76.19
59367;BME280;45163;47.690;11.770;2022-07-10T11:39:26;93753.41;;;22.80;76.57
59367;BME280;45163;47.690;11.770;2022-07-10T11:41:52;93756.66;;;21.97;77.89
59367;BME280;45163;47.690;11.770;2022-07-10T11:44:18;93770.09;;;20.77;84.56
59367;BME280;45163;47.690;11.770;2022-07-10T11:46:46;93762.41;;;19.29;95.52
59367;BME280;45163;47.690;11.770;2022-07-10T11:49:15;93770.44;;;18.29;100.00
59367;BME280;45163;47.690;11.770;2022-07-10T11:51:43;93780.28;;;17.82;100.00
59367;BME280;45163;47.690;11.770;2022-07-10T11:54:12;93779.28;;;17.37;100.00
59367;BME280;45163;47.690;11.770;2022-07-10T11:56:40;93787.91;;;17.21;100.00
59367;BME280;45163;47.690;11.770;2022-07-10T11:59:11;93780.34;;;16.88;100.00
59367;BME280;45163;47.690;11.770;2022-07-10T12:01:42;93786.22;;;16.72;100.00
59367;BME280;45163;47.690;11.770;2022-07-10T12:04:09;93787.41;;;16.80;100.00
59367;BME280;45163;47.690;11.770;2022-07-10T12:06:39;93778.78;;;17.06;100.00
59367;BME280;45163;47.690;11.770;2022-07-10T12:09:10;93780.41;;;17.22;100.00
59367;BME280;45163;47.690;11.770;2022-07-10T12:11:37;93779.81;;;17.51;100.00
59367;BME280;45163;47.690;11.770;2022-07-10T12:16:43;93773.94;;;18.69;100.00
59367;BME280;45163;47.690;11.770;2022-07-10T12:19:13;93771.66;;;19.26;100.00
59367;BME280;45163;47.690;11.770;2022-07-10T12:21:44;93767.50;;;19.51;100.00
59367;BME280;45163;47.690;11.770;2022-07-10T12:24:12;93767.53;;;19.36;100.00
59367;BME280;45163;47.690;11.770;2022-07-10T12:26:40;93766.97;;;19.32;100.00
59367;BME280;45163;47.690;11.770;2022-07-10T12:29:18;93766.91;;;18.97;100.00
59367;BME280;45163;47.690;11.770;2022-07-10T12:31:46;93770.25;;;19.01;100.00
59367;BME280;45163;47.690;11.770;2022-07-10T12:34:12;93769.97;;;18.99;100.00
59367;BME280;45163;47.690;11.770;2022-07-10T12:36:46;93771.72;;;18.58;100.00
59367;BME280;45163;47.690;11.770;2022-07-10T12:39:16;93769.59;;;18.38;100.00
59367;BME280;45163;47.690;11.770;2022-07-10T12:42:00;93783.28;;;18.56;100.00
59367;BME280;45163;47.690;11.770;2022-07-10T12:44:44;93781.56;;;18.59;100.00
59367;BME280;45163;47.690;11.770;2022-07-10T12:47:15;93779.41;;;18.92;100.00
59367;BME280;45163;47.690;11.770;2022-07-10T12:50:07;93781.88;;;19.20;100.00
59367;BME280;45163;47.690;11.770;2022-07-10T12:52:37;93780.59;;;19.65;100.00
59367;BME280;45163;47.690;11.770;2022-07-10T12:55:06;93785.75;;;20.34;100.00
59367;BME280;45163;47.690;11.770;2022-07-10T13:00:16;93758.91;;;21.98;80.09
59367;BME280;45163;47.690;11.770;2022-07-10T13:02:45;93772.19;;;23.02;83.90
59367;BME280;45163;47.690;11.770;2022-07-10T13:05:41;93772.84;;;24.32;63.52
59367;BME280;45163;47.690;11.770;2022-07-10T13:10:48;93774.94;;;22.85;68.26
59367;BME280;45163;47.690;11.770;2022-07-10T13:13:14;93770.47;;;22.28;74.05
59367;BME280;45163;47.690;11.770;2022-07-10T13:15:40;93765.03;;;22.08;77.01
59367;BME280;45163;47.690;11.770;2022-07-10T13:18:15;93761.34;;;22.28;72.61